Time;durP1;ratioP1;P1;durP2;ratioP2;P2;SDS_P1;SDS_P2;PMS_P1;PMS_P2;Temp;Humidity;BMP_temperature;BMP_pressure;BME280_temperature;BME280_humidity;BME280_pressure;Samples;Min_cycle;Max_cycle;Signal;HPM_P1;HPM_P2
2023/08/23 00:00:15;;;;;;;7.03;6.33;;;20.90;99.90;;;;;;5024813;28;20487;-67
2023/08/23 00:02:44;;;;;;;12.13;6.50;;;20.90;99.90;;;;;;5015499;28;21028;-66
2023/08/23 00:05:11;;;;;;;7.20;6.50;;;20.90;99.90;;;;;;5025043;28;20562;-67
2023/08/23 00:07:38;;;;;;;6.17;5.60;;;20.90;99.90;;;;;;5023904;28;20486;-66
2023/08/23 00:10:06;;;;;;;10.23;6.33;;;20.90;99.90;;;;;;5028101;28;20559;-66
2023/08/23 00:12:32;;;;;;;6.10;5.50;;;21.00;99.90;;;;;;5023706;28;20736;-66
2023/08/23 00:15:00;;;;;;;7.17;6.47;;;;;;;;;;5022677;28;20458;-67
2023/08/23 00:17:27;;;;;;;11.47;5.97;;;20.90;99.90;;;;;;5020610;28;20475;-67
2023/08/23 00:19:56;;;;;;;5.97;5.40;;;20.90;99.90;;;;;;5032332;28;20485;-67
2023/08/23 00:22:23;;;;;;;9.53;6.40;;;20.90;99.90;;;;;;5023533;28;20471;-67
2023/08/23 00:24:50;;;;;;;6.60;5.83;;;20.90;99.90;;;;;;5024082;28;21031;-67
2023/08/23 00:27:16;;;;;;;12.93;5.37;;;20.90;99.90;;;;;;5026754;28;20519;-67
2023/08/23 00:29:43;;;;;;;8.97;6.63;;;20.90;99.90;;;;;;5028101;28;20478;-66
2023/08/23 00:32:10;;;;;;;7.63;6.67;;;20.90;99.90;;;;;;5024491;28;20485;-66
2023/08/23 00:34:37;;;;;;;8.73;7.30;;;20.90;99.90;;;;;;5023415;28;20476;-65
2023/08/23 00:37:06;;;;;;;8.20;6.43;;;20.90;99.90;;;;;;5026838;28;20489;-66
2023/08/23 00:39:33;;;;;;;8.00;5.97;;;20.80;99.90;;;;;;5023043;28;20486;-67
2023/08/23 00:42:00;;;;;;;8.53;7.27;;;20.70;99.90;;;;;;5025205;28;20669;-66
2023/08/23 00:44:27;;;;;;;10.23;7.30;;;20.60;99.90;;;;;;5024686;28;20479;-66
2023/08/23 00:46:54;;;;;;;7.50;6.80;;;20.50;99.90;;;;;;5025852;28;20864;-67
2023/08/23 00:49:21;;;;;;;7.17;6.00;;;20.50;99.90;;;;;;5023472;28;20481;-66
2023/08/23 00:51:49;;;;;;;9.03;5.93;;;20.50;99.90;;;;;;5027769;28;20817;-67
2023/08/23 00:54:18;;;;;;;9.10;5.50;;;20.50;99.90;;;;;;5026939;28;20898;-66
2023/08/23 00:56:46;;;;;;;6.77;6.07;;;20.50;99.90;;;;;;5024451;28;20584;-65
2023/08/23 00:59:13;;;;;;;6.70;6.07;;;20.40;99.90;;;;;;5016714;28;21579;-66
2023/08/23 01:01:39;;;;;;;14.20;6.00;;;20.40;99.90;;;;;;5038557;28;20863;-66
2023/08/23 01:04:06;;;;;;;6.40;5.80;;;20.30;99.90;;;;;;5025011;28;20524;-67
2023/08/23 01:06:46;;;;;;;7.13;6.27;;;20.30;99.90;;;;;;5024435;28;20497;-66
2023/08/23 01:09:24;;;;;;;6.80;6.10;;;20.30;99.90;;;;;;5018631;28;20484;-66
2023/08/23 01:12:00;;;;;;;10.67;6.33;;;20.20;99.90;;;;;;5014335;28;20471;-67
2023/08/23 01:14:38;;;;;;;8.00;7.30;;;20.20;99.90;;;;;;5015624;28;20582;-66
2023/08/23 01:17:07;;;;;;;8.53;7.63;;;20.20;99.90;;;;;;5029175;28;20483;-66
2023/08/23 01:19:52;;;;;;;10.13;6.20;;;20.20;99.90;;;;;;5030628;28;20471;-66
2023/08/23 01:22:20;;;;;;;6.33;5.57;;;20.10;99.90;;;;;;5029615;28;20487;-67
2023/08/23 01:24:50;;;;;;;9.03;5.43;;;20.10;99.90;;;;;;5019199;28;20472;-66
2023/08/23 01:27:18;;;;;;;5.57;5.07;;;20.00;99.90;;;;;;5028678;28;20479;-66
2023/08/23 01:29:45;;;;;;;6.87;6.27;;;19.90;99.90;;;;;;5030358;28;20566;-71
2023/08/23 01:32:31;;;;;;;6.50;5.90;;;19.80;99.90;;;;;;5029938;28;20932;-70
2023/08/23 01:35:02;;;;;;;10.60;7.50;;;19.70;99.90;;;;;;5023580;28;20477;-72
2023/08/23 01:37:31;;;;;;;7.47;6.77;;;19.70;99.90;;;;;;5031580;28;20502;-70
2023/08/23 01:40:02;;;;;;;8.73;7.73;;;19.70;99.90;;;;;;5030577;28;20561;-72
2023/08/23 01:42:30;;;;;;;7.00;6.40;;;19.70;99.90;;;;;;5029233;28;20565;-69
2023/08/23 01:44:58;;;;;;;9.23;7.07;;;19.80;99.90;;;;;;5029214;28;20514;-70
2023/08/23 01:47:24;;;;;;;8.00;6.30;;;19.80;99.90;;;;;;5030497;28;20506;-70
2023/08/23 01:49:51;;;;;;;8.87;6.03;;;19.80;99.90;;;;;;5028906;28;21122;-70
2023/08/23 01:52:18;;;;;;;6.30;5.80;;;19.80;99.90;;;;;;5014765;28;20598;-71
2023/08/23 01:54:45;;;;;;;13.60;4.90;;;19.70;99.90;;;;;;5008512;28;20468;-69
2023/08/23 01:57:13;;;;;;;5.80;5.40;;;19.70;99.90;;;;;;5029666;28;20489;-72
2023/08/23 01:59:40;;;;;;;7.10;6.07;;;19.70;99.90;;;;;;5031617;28;20486;-72
2023/08/23 02:02:07;;;;;;;9.43;8.40;;;19.40;99.90;;;;;;5025189;28;21005;-71
2023/08/23 02:04:34;;;;;;;7.57;6.77;;;19.30;99.90;;;;;;5029390;28;20958;-70
2023/08/23 02:07:01;;;;;;;9.20;7.33;;;19.30;99.90;;;;;;5021759;28;20493;-71
2023/08/23 02:09:28;;;;;;;10.73;7.77;;;19.30;99.90;;;;;;5020816;28;20486;-72
2023/08/23 02:11:55;;;;;;;6.37;5.77;;;19.30;99.90;;;;;;5027715;28;21269;-72
2023/08/23 02:14:23;;;;;;;11.40;6.00;;;19.20;99.90;;;;;;5016193;28;20932;-72
2023/08/23 02:16:50;;;;;;;13.43;6.87;;;19.20;99.90;;;;;;5026482;28;20482;-72
2023/08/23 02:19:17;;;;;;;9.13;6.70;;;19.20;99.90;;;;;;5020305;28;20494;-71
2023/08/23 02:21:44;;;;;;;9.50;7.40;;;19.10;99.90;;;;;;5030809;28;20467;-72
2023/08/23 02:24:11;;;;;;;21.77;8.83;;;19.10;99.90;;;;;;5026173;28;20479;-70
2023/08/23 02:26:38;;;;;;;12.00;7.53;;;19.10;99.90;;;;;;5027324;28;20824;-72
2023/08/23 02:29:05;;;;;;;6.53;5.93;;;19.20;99.90;;;;;;5029821;28;20563;-71
2023/08/23 02:31:33;;;;;;;9.17;7.43;;;19.20;99.90;;;;;;5029576;28;20737;-69
2023/08/23 02:34:00;;;;;;;19.47;7.43;;;19.20;99.90;;;;;;5030922;28;20483;-71
2023/08/23 02:36:27;;;;;;;9.30;6.47;;;19.20;99.90;;;;;;5028768;28;20480;-71
2023/08/23 02:38:55;;;;;;;9.53;6.20;;;19.10;99.90;;;;;;5032999;28;20476;-70
2023/08/23 02:41:22;;;;;;;8.50;6.50;;;19.00;99.90;;;;;;5032002;28;20481;-71
2023/08/23 02:43:49;;;;;;;8.17;6.60;;;;;;;;;;5032344;28;20553;-73
2023/08/23 02:46:16;;;;;;;8.37;6.70;;;19.00;99.90;;;;;;5031867;28;20490;-69
2023/08/23 02:48:44;;;;;;;6.90;6.20;;;18.80;99.90;;;;;;5018380;28;20573;-71
2023/08/23 02:51:11;;;;;;;8.63;6.70;;;18.80;99.90;;;;;;4990550;28;20485;-72
2023/08/23 02:53:38;;;;;;;8.87;7.97;;;18.80;99.90;;;;;;5030845;28;20508;-72
2023/08/23 02:56:05;;;;;;;8.23;7.43;;;18.80;99.90;;;;;;5025197;28;20484;-68
2023/08/23 02:58:32;;;;;;;10.20;5.70;;;18.80;99.90;;;;;;5030630;28;20551;-72
2023/08/23 03:00:59;;;;;;;7.03;6.43;;;18.80;99.90;;;;;;5018837;28;20490;-70
2023/08/23 03:03:26;;;;;;;8.50;7.20;;;18.80;99.90;;;;;;5027849;28;20552;-72
2023/08/23 03:05:57;;;;;;;7.80;6.77;;;18.80;99.90;;;;;;5028314;28;20482;-73
2023/08/23 03:08:24;;;;;;;8.40;7.70;;;18.80;99.90;;;;;;5031552;28;20893;-73
2023/08/23 03:10:51;;;;;;;9.63;7.77;;;18.80;99.90;;;;;;5030256;28;20504;-71
2023/08/23 03:13:18;;;;;;;7.27;6.67;;;18.70;99.90;;;;;;5031259;28;20492;-69
2023/08/23 03:15:45;;;;;;;7.27;6.57;;;18.60;99.90;;;;;;5017310;28;20484;-71
2023/08/23 03:18:12;;;;;;;10.67;6.20;;;18.50;99.90;;;;;;5028159;28;20480;-70
2023/08/23 03:20:38;;;;;;;7.70;6.20;;;18.40;99.90;;;;;;5030519;28;20494;-70
2023/08/23 03:23:07;;;;;;;10.80;6.60;;;18.40;99.90;;;;;;5028936;28;20549;-70
2023/08/23 03:25:34;;;;;;;9.60;7.00;;;18.50;99.90;;;;;;5026586;28;21248;-71
2023/08/23 03:28:02;;;;;;;8.03;7.33;;;18.50;99.90;;;;;;5027453;28;20475;-73
2023/08/23 03:30:29;;;;;;;8.77;6.90;;;;;;;;;;5028321;28;20594;-72
2023/08/23 03:32:56;;;;;;;8.17;6.00;;;18.50;99.90;;;;;;5029545;28;21292;-74
2023/08/23 03:35:23;;;;;;;8.20;7.47;;;18.50;99.90;;;;;;5017086;28;20866;-72
2023/08/23 03:37:50;;;;;;;9.70;6.40;;;18.50;99.90;;;;;;5031107;28;20543;-72
2023/08/23 03:40:18;;;;;;;11.93;7.10;;;18.50;99.90;;;;;;5018366;28;20570;-70
2023/08/23 03:42:45;;;;;;;8.67;7.80;;;18.50;99.90;;;;;;5026847;28;20561;-71
2023/08/23 03:45:12;;;;;;;14.43;6.47;;;18.50;99.90;;;;;;5025491;28;21015;-72
2023/08/23 03:47:41;;;;;;;7.40;6.23;;;18.50;99.90;;;;;;5029240;28;20482;-67
2023/08/23 03:50:09;;;;;;;25.93;7.70;;;18.40;99.90;;;;;;5026819;28;20489;-67
2023/08/23 03:52:36;;;;;;;7.83;7.13;;;18.40;99.90;;;;;;5031545;28;20570;-68
2023/08/23 03:55:04;;;;;;;6.77;6.27;;;;;;;;;;5026844;28;20502;-68
2023/08/23 03:57:33;;;;;;;8.87;7.30;;;18.40;99.90;;;;;;5028406;28;20568;-68
2023/08/23 04:00:00;;;;;;;30.83;8.00;;;18.40;99.90;;;;;;5029987;28;20487;-68
2023/08/23 04:02:27;;;;;;;13.60;8.07;;;18.30;99.90;;;;;;5028454;28;20480;-67
2023/08/23 04:04:54;;;;;;;12.87;8.87;;;18.30;99.90;;;;;;5030858;28;20550;-67
2023/08/23 04:07:22;;;;;;;6.97;6.33;;;18.20;99.90;;;;;;5018849;28;20571;-68
2023/08/23 04:09:48;;;;;;;35.60;7.60;;;18.20;99.90;;;;;;5031132;28;20989;-68
2023/08/23 04:12:15;;;;;;;8.80;7.30;;;18.10;99.90;;;;;;5030740;28;20487;-67
2023/08/23 04:14:43;;;;;;;9.63;7.30;;;18.10;99.90;;;;;;5029314;28;20460;-66
2023/08/23 04:17:10;;;;;;;9.83;7.60;;;18.10;99.90;;;;;;5027888;28;20638;-67
2023/08/23 04:19:37;;;;;;;34.57;7.57;;;18.00;99.90;;;;;;5028165;28;20566;-67
2023/08/23 04:22:04;;;;;;;11.70;7.37;;;18.00;99.90;;;;;;5025959;28;20867;-68
2023/08/23 04:24:31;;;;;;;8.63;7.10;;;18.00;99.90;;;;;;5025931;28;20484;-67
2023/08/23 04:26:58;;;;;;;8.70;6.70;;;18.00;99.90;;;;;;5025565;28;20505;-66
2023/08/23 04:29:25;;;;;;;13.83;7.03;;;18.00;99.90;;;;;;5015323;28;21032;-67
2023/08/23 04:31:53;;;;;;;7.37;6.67;;;18.00;99.90;;;;;;5014817;28;20487;-67
2023/08/23 04:34:20;;;;;;;6.50;5.90;;;18.00;99.90;;;;;;5027485;28;20893;-67
2023/08/23 04:36:47;;;;;;;14.30;7.70;;;18.00;99.90;;;;;;5028629;28;20475;-67
2023/08/23 04:39:14;;;;;;;7.80;6.43;;;18.00;99.90;;;;;;5028537;28;20563;-67
2023/08/23 04:41:41;;;;;;;9.03;6.80;;;17.90;99.90;;;;;;5026351;28;21092;-67
2023/08/23 04:44:07;;;;;;;8.27;7.47;;;18.00;99.90;;;;;;5026094;28;20510;-67
2023/08/23 04:46:34;;;;;;;7.30;6.63;;;18.00;99.90;;;;;;5026998;28;20651;-67
2023/08/23 04:49:03;;;;;;;7.83;6.87;;;18.00;99.90;;;;;;5030533;28;20732;-67
2023/08/23 04:51:30;;;;;;;8.70;7.90;;;18.00;99.90;;;;;;5031218;28;21062;-67
2023/08/23 04:53:57;;;;;;;9.93;7.43;;;18.00;99.90;;;;;;5030250;28;20558;-67
2023/08/23 04:56:24;;;;;;;8.87;7.27;;;18.00;99.90;;;;;;5030762;28;20479;-67
2023/08/23 04:58:53;;;;;;;10.57;7.17;;;18.00;99.90;;;;;;5031560;28;20889;-70
2023/08/23 05:01:20;;;;;;;9.03;8.07;;;;;;;;;;5030949;28;20475;-70
2023/08/23 05:03:47;;;;;;;7.97;7.27;;;17.80;99.90;;;;;;5034171;28;20472;-70
2023/08/23 05:06:15;;;;;;;8.90;6.90;;;17.80;99.90;;;;;;5033021;28;20542;-69
2023/08/23 05:08:42;;;;;;;10.77;8.37;;;17.80;99.90;;;;;;5033300;28;20855;-69
2023/08/23 05:11:09;;;;;;;8.17;7.37;;;17.80;99.90;;;;;;5033357;28;20465;-70
2023/08/23 05:13:36;;;;;;;7.37;6.70;;;17.80;99.90;;;;;;5030062;28;20489;-68
2023/08/23 05:16:03;;;;;;;7.47;6.77;;;17.80;99.90;;;;;;5034018;28;20915;-69
2023/08/23 05:18:30;;;;;;;10.27;7.60;;;17.80;99.90;;;;;;5030895;28;20482;-68
2023/08/23 05:20:59;;;;;;;8.30;7.40;;;17.90;99.90;;;;;;5026167;28;20482;-69
2023/08/23 05:23:27;;;;;;;10.10;8.53;;;17.80;99.90;;;;;;5039848;28;20559;-68
2023/08/23 05:25:55;;;;;;;8.17;7.30;;;17.90;99.90;;;;;;5028212;28;20874;-69
2023/08/23 05:28:22;;;;;;;9.93;8.73;;;17.90;99.90;;;;;;5035953;28;20552;-69
2023/08/23 05:30:51;;;;;;;8.93;8.07;;;18.00;99.90;;;;;;5027708;28;20475;-70
2023/08/23 05:33:18;;;;;;;9.43;8.50;;;18.00;99.90;;;;;;5040207;28;20910;-68
2023/08/23 05:35:45;;;;;;;8.93;8.10;;;18.10;99.90;;;;;;5035068;28;20554;-69
2023/08/23 05:38:12;;;;;;;11.10;8.67;;;18.10;99.90;;;;;;5030462;28;20484;-69
2023/08/23 05:40:41;;;;;;;8.80;7.97;;;18.20;99.90;;;;;;5030744;28;20917;-68
2023/08/23 05:43:08;;;;;;;9.60;8.67;;;18.20;99.90;;;;;;5028320;28;21750;-70
2023/08/23 05:45:35;;;;;;;20.53;10.07;;;18.40;99.90;;;;;;5028667;28;20884;-68
2023/08/23 05:48:02;;;;;;;12.63;9.33;;;18.40;99.90;;;;;;5032488;28;20480;-69
2023/08/23 05:50:29;;;;;;;22.13;10.00;;;18.50;99.90;;;;;;5029814;28;20488;-70
2023/08/23 05:52:56;;;;;;;9.97;8.30;;;18.60;99.90;;;;;;5030562;28;20506;-69
2023/08/23 05:55:23;;;;;;;19.87;10.27;;;18.60;99.90;;;;;;5030502;28;20476;-69
2023/08/23 05:57:51;;;;;;;13.50;9.30;;;18.60;99.90;;;;;;5027620;28;21054;-69
2023/08/23 06:00:18;;;;;;;15.43;10.87;;;18.70;99.90;;;;;;5030863;28;20486;-68
2023/08/23 06:02:45;;;;;;;10.53;9.43;;;18.80;99.90;;;;;;5031983;28;20485;-69
2023/08/23 06:05:13;;;;;;;15.00;10.30;;;18.90;99.90;;;;;;5030111;28;20498;-70
2023/08/23 06:07:40;;;;;;;12.93;11.00;;;18.90;99.90;;;;;;5032865;28;20468;-66
2023/08/23 06:10:09;;;;;;;12.67;9.80;;;19.00;99.90;;;;;;5029034;28;20956;-65
2023/08/23 06:12:35;;;;;;;20.43;13.93;;;19.10;99.90;;;;;;5031840;28;20476;-66
2023/08/23 06:15:05;;;;;;;19.20;11.50;;;19.20;99.90;;;;;;5028100;28;21017;-65
2023/08/23 06:17:32;;;;;;;13.70;11.53;;;19.30;99.90;;;;;;5029702;28;20483;-66
2023/08/23 06:19:59;;;;;;;15.90;13.17;;;19.40;99.90;;;;;;5028736;28;20482;-66
2023/08/23 06:22:26;;;;;;;18.03;13.60;;;19.50;99.90;;;;;;5030399;28;20551;-65
2023/08/23 06:24:53;;;;;;;29.47;14.80;;;;;;;;;;5018521;28;20551;-65
2023/08/23 06:27:20;;;;;;;18.50;14.87;;;;;;;;;;5030614;28;20721;-65
2023/08/23 06:29:47;;;;;;;15.50;13.93;;;;;;;;;;5029442;28;20903;-65
2023/08/23 06:32:15;;;;;;;17.33;15.10;;;20.00;99.90;;;;;;5030294;28;20829;-66
2023/08/23 06:34:43;;;;;;;21.83;16.23;;;;;;;;;;5024663;28;20659;-66
2023/08/23 06:37:11;;;;;;;19.03;16.77;;;20.20;99.90;;;;;;5028301;28;20487;-65
2023/08/23 06:39:38;;;;;;;22.00;19.70;;;20.50;99.90;;;;;;5018026;28;20554;-66
2023/08/23 06:42:05;;;;;;;33.10;19.83;;;20.70;99.90;;;;;;5022489;28;20478;-65
2023/08/23 06:44:32;;;;;;;24.87;19.97;;;;;;;;;;5031501;28;21220;-65
2023/08/23 06:46:59;;;;;;;24.63;20.10;;;21.10;99.90;;;;;;5027575;28;20559;-65
2023/08/23 06:49:27;;;;;;;21.97;19.27;;;21.10;99.90;;;;;;5030265;28;21313;-65
2023/08/23 06:51:54;;;;;;;22.13;18.30;;;21.50;99.90;;;;;;5028301;28;20883;-64
2023/08/23 06:54:21;;;;;;;21.80;19.20;;;21.70;99.90;;;;;;5026870;28;20673;-66
2023/08/23 06:56:48;;;;;;;31.37;21.23;;;21.90;99.90;;;;;;5029439;28;20472;-64
2023/08/23 06:59:15;;;;;;;30.53;20.60;;;22.20;99.90;;;;;;5028940;28;20505;-65
2023/08/23 07:01:42;;;;;;;18.23;16.30;;;22.80;99.90;;;;;;5029865;28;20466;-65
2023/08/23 07:04:09;;;;;;;21.43;14.30;;;23.30;99.90;;;;;;5026757;28;20497;-65
2023/08/23 07:06:37;;;;;;;19.93;15.20;;;23.90;99.90;;;;;;5016456;28;20473;-65
2023/08/23 07:09:04;;;;;;;22.03;14.17;;;24.10;99.90;;;;;;5029599;28;20944;-65
2023/08/23 07:11:31;;;;;;;16.53;14.97;;;24.50;99.90;;;;;;5007430;28;20568;-65
2023/08/23 07:13:58;;;;;;;15.33;13.83;;;24.60;99.90;;;;;;5017015;28;20512;-65
2023/08/23 07:16:25;;;;;;;13.80;12.17;;;25.00;99.90;;;;;;5023373;28;21264;-64
2023/08/23 07:18:52;;;;;;;18.30;13.97;;;25.20;99.90;;;;;;5030647;28;20480;-66
2023/08/23 07:21:19;;;;;;;13.30;11.80;;;25.40;99.80;;;;;;5029108;28;20497;-66
2023/08/23 07:23:47;;;;;;;16.33;14.20;;;25.60;99.20;;;;;;5031041;28;20489;-66
2023/08/23 07:26:14;;;;;;;15.97;13.50;;;25.70;99.30;;;;;;5029429;28;20851;-66
2023/08/23 07:28:41;;;;;;;13.40;12.10;;;25.70;99.20;;;;;;5027121;28;20478;-65
2023/08/23 07:31:08;;;;;;;16.60;14.73;;;25.90;99.10;;;;;;5029362;28;20462;-66
2023/08/23 07:33:35;;;;;;;15.47;12.90;;;25.90;99.30;;;;;;5030427;28;20571;-65
2023/08/23 07:36:02;;;;;;;14.27;12.77;;;26.10;99.30;;;;;;5028784;28;20666;-66
2023/08/23 07:38:31;;;;;;;18.30;12.77;;;26.20;99.10;;;;;;5028249;28;20480;-65
2023/08/23 07:41:01;;;;;;;22.40;13.90;;;26.40;98.70;;;;;;5026599;28;20876;-65
2023/08/23 07:43:28;;;;;;;14.53;13.00;;;26.50;99.00;;;;;;5026978;28;20806;-65
2023/08/23 07:45:55;;;;;;;20.13;15.03;;;26.60;99.00;;;;;;5026509;28;20955;-66
2023/08/23 07:48:23;;;;;;;19.43;13.17;;;26.70;98.50;;;;;;5028384;28;20515;-66
2023/08/23 07:50:50;;;;;;;18.10;12.47;;;26.90;98.50;;;;;;5027310;28;20502;-65
2023/08/23 07:53:17;;;;;;;14.90;12.63;;;27.00;98.10;;;;;;5027687;28;21040;-67
2023/08/23 07:55:44;;;;;;;18.87;11.60;;;27.10;98.20;;;;;;5030251;28;20461;-66
2023/08/23 07:58:13;;;;;;;14.80;13.10;;;27.30;97.90;;;;;;5029526;28;20482;-66
2023/08/23 08:00:39;;;;;;;28.63;15.83;;;27.50;97.50;;;;;;5031266;28;20472;-65
2023/08/23 08:03:07;;;;;;;16.73;13.70;;;27.50;97.60;;;;;;5026607;28;20465;-66
2023/08/23 08:05:35;;;;;;;16.20;13.37;;;27.70;97.10;;;;;;5030096;28;20967;-66
2023/08/23 08:08:02;;;;;;;14.00;12.60;;;27.90;97.20;;;;;;5029748;28;20743;-66
2023/08/23 08:10:29;;;;;;;21.20;14.23;;;28.00;97.10;;;;;;5029043;28;20447;-66
2023/08/23 08:12:56;;;;;;;14.57;12.50;;;28.10;97.10;;;;;;5028618;28;21047;-66
2023/08/23 08:15:25;;;;;;;19.70;12.80;;;28.20;96.50;;;;;;5027933;28;20475;-66
2023/08/23 08:17:52;;;;;;;13.77;11.57;;;28.40;96.10;;;;;;5021117;28;20457;-65
2023/08/23 08:20:19;;;;;;;31.50;13.37;;;28.40;96.40;;;;;;5026304;28;20475;-66
2023/08/23 08:22:46;;;;;;;13.53;11.03;;;28.40;96.20;;;;;;5036221;28;20865;-66
2023/08/23 08:25:13;;;;;;;12.60;10.90;;;28.60;95.90;;;;;;5025428;28;20484;-65
2023/08/23 08:27:40;;;;;;;11.77;10.00;;;28.80;95.60;;;;;;5024726;28;20528;-70
2023/08/23 08:30:07;;;;;;;14.00;10.97;;;28.90;95.60;;;;;;5026192;28;20469;-69
2023/08/23 08:32:35;;;;;;;14.03;10.77;;;29.20;95.60;;;;;;5027443;28;20475;-71
2023/08/23 08:35:03;;;;;;;14.47;11.80;;;;;;;;;;5028172;28;20944;-71
2023/08/23 08:37:30;;;;;;;16.43;11.00;;;29.50;95.00;;;;;;5027072;28;20488;-71
2023/08/23 08:39:57;;;;;;;11.70;10.60;;;29.60;94.70;;;;;;5025576;28;20472;-70
2023/08/23 08:42:24;;;;;;;11.77;10.73;;;29.70;95.00;;;;;;5027078;28;21026;-71
2023/08/23 08:44:52;;;;;;;12.73;10.00;;;29.80;94.20;;;;;;5018241;28;20533;-68
2023/08/23 08:47:19;;;;;;;9.67;8.80;;;30.00;94.50;;;;;;5029145;28;20537;-71
2023/08/23 08:49:47;;;;;;;12.70;9.00;;;30.10;94.40;;;;;;5028403;28;21210;-71
2023/08/23 08:52:19;;;;;;;9.43;8.63;;;30.20;94.30;;;;;;5017788;28;20887;-71
2023/08/23 08:54:48;;;;;;;12.80;10.00;;;30.40;93.60;;;;;;5024243;28;20862;-70
2023/08/23 08:57:16;;;;;;;15.60;9.13;;;30.50;93.10;;;;;;5018995;28;20489;-68
2023/08/23 08:59:43;;;;;;;9.87;8.83;;;30.50;93.60;;;;;;5024254;28;20852;-68
2023/08/23 09:02:13;;;;;;;12.63;7.77;;;30.60;93.20;;;;;;5023160;28;20607;-70
2023/08/23 09:04:40;;;;;;;9.73;8.93;;;30.60;91.80;;;;;;5026970;28;20480;-70
2023/08/23 09:07:08;;;;;;;9.37;8.43;;;30.80;92.80;;;;;;5023731;28;20443;-71
2023/08/23 09:09:35;;;;;;;9.03;8.13;;;30.80;92.30;;;;;;5026807;28;21040;-70
2023/08/23 09:12:02;;;;;;;11.87;9.13;;;31.10;91.70;;;;;;5021516;28;20490;-71
2023/08/23 09:14:31;;;;;;;12.67;8.13;;;31.10;92.10;;;;;;5026584;28;20484;-70
2023/08/23 09:16:58;;;;;;;10.50;7.60;;;;;;;;;;5027599;28;20470;-68
2023/08/23 09:19:25;;;;;;;10.60;7.63;;;31.30;91.80;;;;;;5028362;28;20462;-69
2023/08/23 09:21:52;;;;;;;30.07;8.60;;;31.40;92.10;;;;;;5032978;28;21188;-67
2023/08/23 09:24:21;;;;;;;11.43;7.47;;;31.40;92.40;;;;;;5028761;28;20482;-69
2023/08/23 09:26:48;;;;;;;11.53;7.20;;;31.50;91.30;;;;;;5027350;28;20454;-69
2023/08/23 09:29:15;;;;;;;16.40;8.20;;;31.50;90.40;;;;;;5026900;28;20495;-69
2023/08/23 09:31:42;;;;;;;7.83;7.23;;;31.50;88.80;;;;;;5026641;28;20457;-68
2023/08/23 09:34:14;;;;;;;10.37;8.00;;;31.50;90.60;;;;;;5030507;28;20579;-71
2023/08/23 09:36:44;;;;;;;13.70;7.83;;;31.40;91.80;;;;;;5031669;28;20582;-70
2023/08/23 09:39:12;;;;;;;15.13;9.93;;;31.40;91.40;;;;;;5029275;28;20487;-72
2023/08/23 09:41:41;;;;;;;11.23;7.60;;;31.50;91.50;;;;;;5031276;28;20917;-71
2023/08/23 09:44:09;;;;;;;6.97;6.10;;;31.50;90.80;;;;;;5032210;28;20573;-71
2023/08/23 09:46:39;;;;;;;9.20;7.40;;;31.50;90.90;;;;;;5032633;28;20510;-69
2023/08/23 09:49:07;;;;;;;9.30;8.47;;;31.50;91.10;;;;;;5030331;28;20482;-68
2023/08/23 09:51:36;;;;;;;18.93;7.87;;;31.00;90.10;;;;;;5030577;28;20788;-72
2023/08/23 09:54:11;;;;;;;8.87;7.97;;;30.80;90.80;;;;;;5024168;28;20465;-69
2023/08/23 09:56:41;;;;;;;19.67;9.67;;;30.30;89.00;;;;;;5040447;28;20551;-71
2023/08/23 09:59:10;;;;;;;7.47;6.70;;;30.30;90.60;;;;;;5028031;28;20897;-70
2023/08/23 10:01:37;;;;;;;9.87;7.37;;;29.80;87.20;;;;;;5029468;28;20547;-69
2023/08/23 10:04:04;;;;;;;6.73;6.13;;;29.60;90.20;;;;;;5030970;28;20857;-70
2023/08/23 10:06:32;;;;;;;10.93;6.53;;;29.40;88.00;;;;;;5030019;28;20562;-72
2023/08/23 10:08:59;;;;;;;7.37;6.70;;;29.40;89.50;;;;;;5030370;28;20472;-70
2023/08/23 10:11:28;;;;;;;7.73;7.13;;;29.40;89.80;;;;;;5030744;28;20519;-70
2023/08/23 10:13:59;;;;;;;8.80;7.47;;;29.70;90.20;;;;;;5026841;28;20443;-70
2023/08/23 10:16:28;;;;;;;10.90;7.40;;;29.90;91.00;;;;;;5017727;28;20719;-71
2023/08/23 10:18:55;;;;;;;21.30;8.47;;;29.90;90.30;;;;;;5018973;28;20642;-71
2023/08/23 10:21:22;;;;;;;7.27;6.60;;;30.20;91.80;;;;;;5029882;28;20941;-67
2023/08/23 10:23:49;;;;;;;8.00;6.60;;;30.60;91.60;;;;;;5028495;28;20494;-69
2023/08/23 10:26:21;;;;;;;10.03;6.80;;;31.00;91.30;;;;;;5029684;28;20898;-70
2023/08/23 10:28:49;;;;;;;5.50;5.10;;;31.10;91.60;;;;;;5029377;28;20846;-69
2023/08/23 10:31:23;;;;;;;5.40;4.90;;;31.40;89.20;;;;;;5017774;28;20484;-71
2023/08/23 10:33:55;;;;;;;7.27;6.40;;;31.60;86.60;;;;;;5039954;28;21244;-67
2023/08/23 10:36:26;;;;;;;7.47;6.40;;;31.50;88.10;;;;;;5028980;28;20917;-68
2023/08/23 10:38:55;;;;;;;9.50;6.20;;;31.40;90.30;;;;;;5026551;28;20465;-69
2023/08/23 10:41:23;;;;;;;5.70;5.30;;;31.30;90.20;;;;;;5029306;28;20565;-70
2023/08/23 10:43:50;;;;;;;7.27;6.67;;;31.50;86.60;;;;;;5029945;28;20453;-70
2023/08/23 10:46:19;;;;;;;8.07;6.03;;;31.60;88.80;;;;;;5027889;28;21117;-70
2023/08/23 10:48:47;;;;;;;6.47;5.97;;;31.70;88.30;;;;;;5035641;28;20476;-70
2023/08/23 10:51:15;;;;;;;14.37;5.60;;;31.90;88.00;;;;;;5029014;28;20581;-69
2023/08/23 10:53:43;;;;;;;6.00;5.50;;;32.00;89.30;;;;;;5031129;28;20519;-69
2023/08/23 10:56:10;;;;;;;7.97;5.53;;;32.20;86.20;;;;;;5027759;28;20480;-68
2023/08/23 10:58:38;;;;;;;4.47;4.17;;;32.20;87.00;;;;;;5027695;28;20494;-71
2023/08/23 11:01:05;;;;;;;5.27;4.60;;;;;;;;;;5028446;28;20628;-70
2023/08/23 11:03:34;;;;;;;3.90;3.60;;;32.50;87.00;;;;;;5029344;28;20551;-73
2023/08/23 11:06:02;;;;;;;8.10;4.20;;;32.60;81.70;;;;;;5029173;28;20479;-73
2023/08/23 11:08:30;;;;;;;3.90;3.50;;;32.50;81.90;;;;;;5029674;28;20583;-70
2023/08/23 11:10:57;;;;;;;7.47;4.60;;;32.60;83.60;;;;;;5026155;28;20562;-73
2023/08/23 11:13:25;;;;;;;6.50;3.80;;;32.70;84.00;;;;;;5026453;28;20499;-71
2023/08/23 11:15:52;;;;;;;5.13;3.47;;;32.70;78.50;;;;;;5018160;28;20496;-69
2023/08/23 11:18:19;;;;;;;4.77;3.40;;;32.70;78.30;;;;;;5042108;28;20487;-73
2023/08/23 11:20:47;;;;;;;5.43;3.67;;;;;;;;;;5027189;28;20457;-73
2023/08/23 11:23:15;;;;;;;4.30;3.90;;;;;;;;;;5030208;28;20520;-70
2023/08/23 11:25:42;;;;;;;17.37;4.30;;;33.10;81.40;;;;;;5031269;28;20573;-72
2023/08/23 11:28:10;;;;;;;5.50;5.00;;;33.00;81.50;;;;;;5033571;28;21110;-71
2023/08/23 11:30:37;;;;;;;5.57;5.07;;;32.80;78.30;;;;;;5029716;28;20480;-69
2023/08/23 11:33:06;;;;;;;7.40;4.90;;;32.40;79.40;;;;;;5028819;28;21247;-69
2023/08/23 11:35:33;;;;;;;12.00;4.23;;;32.20;78.00;;;;;;5028780;28;20573;-72
2023/08/23 11:38:04;;;;;;;4.80;4.40;;;32.50;83.20;;;;;;5029460;28;20522;-72
2023/08/23 11:40:34;;;;;;;7.43;5.13;;;32.50;83.90;;;;;;5025762;28;20484;-73
2023/08/23 11:43:04;;;;;;;7.03;4.60;;;32.80;84.40;;;;;;5025176;28;21219;-72
2023/08/23 11:45:37;;;;;;;8.83;4.30;;;33.10;82.80;;;;;;5028048;28;20459;-68
2023/08/23 11:48:04;;;;;;;5.23;4.43;;;33.10;83.40;;;;;;5030316;28;20507;-73
2023/08/23 11:50:32;;;;;;;5.03;4.53;;;33.10;79.10;;;;;;5026735;28;20923;-71
2023/08/23 11:53:02;;;;;;;8.93;5.10;;;33.00;77.80;;;;;;5024930;28;21077;-70
2023/08/23 11:55:33;;;;;;;9.83;4.20;;;32.60;82.40;;;;;;5028323;28;20486;-69
2023/08/23 11:58:01;;;;;;;5.10;4.70;;;;;;;;;;5027153;28;20484;-70
2023/08/23 12:00:27;;;;;;;6.73;4.23;;;32.60;81.90;;;;;;5018583;28;20574;-72
2023/08/23 12:02:54;;;;;;;5.10;4.20;;;32.60;79.30;;;;;;5025733;28;20484;-69
2023/08/23 12:05:21;;;;;;;12.23;6.17;;;32.80;76.80;;;;;;5028544;28;20728;-70
2023/08/23 12:07:48;;;;;;;8.80;4.30;;;32.50;80.60;;;;;;5029416;28;20490;-71
2023/08/23 12:10:17;;;;;;;12.00;4.03;;;32.60;83.90;;;;;;5021386;28;20458;-72
2023/08/23 12:12:45;;;;;;;3.50;3.20;;;32.80;79.90;;;;;;5023240;28;21002;-69
2023/08/23 12:15:12;;;;;;;5.70;3.53;;;33.10;82.20;;;;;;5024870;28;20479;-69
2023/08/23 12:17:39;;;;;;;3.97;3.63;;;33.10;82.80;;;;;;5027726;28;20482;-72
2023/08/23 12:20:10;;;;;;;3.63;3.33;;;33.40;77.20;;;;;;5025772;28;20490;-69
2023/08/23 12:22:37;;;;;;;5.93;3.93;;;33.60;80.40;;;;;;5025900;28;20534;-71
2023/08/23 12:25:05;;;;;;;4.37;4.07;;;33.70;83.30;;;;;;5023056;28;20844;-73
2023/08/23 12:27:32;;;;;;;6.73;4.10;;;33.70;82.70;;;;;;5022045;28;20445;-69
2023/08/23 12:30:00;;;;;;;3.93;3.60;;;33.90;80.60;;;;;;5026478;28;20486;-71
2023/08/23 12:32:27;;;;;;;3.83;3.40;;;34.00;80.10;;;;;;5027278;28;20607;-70
2023/08/23 12:34:54;;;;;;;9.93;5.43;;;;;;;;;;5028242;28;20487;-73
2023/08/23 12:37:21;;;;;;;7.27;4.10;;;34.30;80.90;;;;;;5027337;28;20490;-72
2023/08/23 12:39:49;;;;;;;3.23;2.93;;;34.40;80.90;;;;;;5024626;28;20871;-71
2023/08/23 12:42:16;;;;;;;5.47;3.10;;;34.50;77.90;;;;;;5025588;28;20927;-70
2023/08/23 12:44:43;;;;;;;3.60;3.30;;;34.60;74.80;;;;;;5027427;28;20482;-73
2023/08/23 12:47:11;;;;;;;5.13;3.50;;;34.70;77.10;;;;;;5025116;28;20997;-71